sensor_id;sensor_type;location;lat;lon;timestamp;P1;durP1;ratioP1;P2;durP2;ratioP2
16330;SDS011;8275;48.206;16.340;2023-09-08T00:00:06;11.10;;;7.10;;
16330;SDS011;8275;48.206;16.340;2023-09-08T00:02:37;8.82;;;7.47;;
16330;SDS011;8275;48.206;16.340;2023-09-08T00:05:06;7.78;;;6.80;;
16330;SDS011;8275;48.206;16.340;2023-09-08T00:07:35;8.43;;;7.57;;
16330;SDS011;8275;48.206;16.340;2023-09-08T00:10:04;8.23;;;7.32;;
16330;SDS011;8275;48.206;16.340;2023-09-08T00:12:34;9.43;;;7.55;;
16330;SDS011;8275;48.206;16.340;2023-09-08T00:15:03;6.90;;;6.20;;
16330;SDS011;8275;48.206;16.340;2023-09-08T00:17:33;6.68;;;5.97;;
16330;SDS011;8275;48.206;16.340;2023-09-08T00:20:05;11.95;;;7.75;;
16330;SDS011;8275;48.206;16.340;2023-09-08T00:22:37;9.80;;;7.20;;
16330;SDS011;8275;48.206;16.340;2023-09-08T00:25:06;7.25;;;6.15;;
16330;SDS011;8275;48.206;16.340;2023-09-08T00:27:35;7.90;;;6.35;;
16330;SDS011;8275;48.206;16.340;2023-09-08T00:30:03;6.25;;;5.65;;
16330;SDS011;8275;48.206;16.340;2023-09-08T00:32:33;8.52;;;6.78;;
16330;SDS011;8275;48.206;16.340;2023-09-08T00:35:06;6.75;;;6.15;;
16330;SDS011;8275;48.206;16.340;2023-09-08T00:37:35;7.55;;;6.75;;
16330;SDS011;8275;48.206;16.340;2023-09-08T00:40:04;7.97;;;6.45;;
16330;SDS011;8275;48.206;16.340;2023-09-08T00:42:35;7.50;;;6.75;;
16330;SDS011;8275;48.206;16.340;2023-09-08T00:45:03;11.77;;;6.68;;
16330;SDS011;8275;48.206;16.340;2023-09-08T00:47:33;6.97;;;6.28;;
16330;SDS011;8275;48.206;16.340;2023-09-08T00:50:02;7.10;;;6.40;;
16330;SDS011;8275;48.206;16.340;2023-09-08T00:52:34;8.27;;;6.75;;
16330;SDS011;8275;48.206;16.340;2023-09-08T00:55:03;7.72;;;6.38;;
16330;SDS011;8275;48.206;16.340;2023-09-08T00:57:32;7.57;;;6.88;;
16330;SDS011;8275;48.206;16.340;2023-09-08T01:00:01;6.80;;;5.85;;
16330;SDS011;8275;48.206;16.340;2023-09-08T01:02:32;7.20;;;6.50;;
16330;SDS011;8275;48.206;16.340;2023-09-08T01:05:00;7.72;;;6.63;;
16330;SDS011;8275;48.206;16.340;2023-09-08T01:07:31;6.18;;;5.15;;
16330;SDS011;8275;48.206;16.340;2023-09-08T01:10:00;6.80;;;6.20;;
16330;SDS011;8275;48.206;16.340;2023-09-08T01:12:32;9.00;;;6.55;;
16330;SDS011;8275;48.206;16.340;2023-09-08T01:15:02;7.63;;;6.60;;
16330;SDS011;8275;48.206;16.340;2023-09-08T01:17:32;9.48;;;6.18;;
16330;SDS011;8275;48.206;16.340;2023-09-08T01:20:04;9.07;;;5.70;;
16330;SDS011;8275;48.206;16.340;2023-09-08T01:22:54;7.20;;;6.50;;
16330;SDS011;8275;48.206;16.340;2023-09-08T01:25:39;8.50;;;7.60;;
16330;SDS011;8275;48.206;16.340;2023-09-08T01:28:14;7.45;;;6.38;;
16330;SDS011;8275;48.206;16.340;2023-09-08T01:30:43;8.68;;;6.65;;
16330;SDS011;8275;48.206;16.340;2023-09-08T01:33:12;7.00;;;6.30;;
16330;SDS011;8275;48.206;16.340;2023-09-08T01:35:41;6.30;;;5.70;;
16330;SDS011;8275;48.206;16.340;2023-09-08T01:38:10;10.20;;;7.10;;
16330;SDS011;8275;48.206;16.340;2023-09-08T01:40:40;8.82;;;6.75;;
16330;SDS011;8275;48.206;16.340;2023-09-08T01:43:08;11.30;;;6.85;;
16330;SDS011;8275;48.206;16.340;2023-09-08T01:45:37;7.45;;;6.75;;
16330;SDS011;8275;48.206;16.340;2023-09-08T01:48:06;8.55;;;6.63;;
16330;SDS011;8275;48.206;16.340;2023-09-08T01:50:34;7.43;;;6.43;;
16330;SDS011;8275;48.206;16.340;2023-09-08T01:53:03;6.82;;;6.13;;
16330;SDS011;8275;48.206;16.340;2023-09-08T01:55:31;7.28;;;6.53;;
16330;SDS011;8275;48.206;16.340;2023-09-08T01:58:01;8.40;;;5.85;;
16330;SDS011;8275;48.206;16.340;2023-09-08T02:00:30;9.07;;;6.20;;
16330;SDS011;8275;48.206;16.340;2023-09-08T02:02:59;10.23;;;6.72;;
16330;SDS011;8275;48.206;16.340;2023-09-08T02:05:28;6.70;;;6.10;;
16330;SDS011;8275;48.206;16.340;2023-09-08T02:07:57;6.97;;;6.35;;
16330;SDS011;8275;48.206;16.340;2023-09-08T02:10:25;7.88;;;6.88;;
16330;SDS011;8275;48.206;16.340;2023-09-08T02:12:54;9.70;;;6.40;;
16330;SDS011;8275;48.206;16.340;2023-09-08T02:15:23;6.95;;;6.30;;
16330;SDS011;8275;48.206;16.340;2023-09-08T02:17:52;8.73;;;6.35;;
16330;SDS011;8275;48.206;16.340;2023-09-08T02:20:21;6.15;;;5.63;;
16330;SDS011;8275;48.206;16.340;2023-09-08T02:25:22;9.05;;;6.13;;
16330;SDS011;8275;48.206;16.340;2023-09-08T02:27:51;7.43;;;6.63;;
16330;SDS011;8275;48.206;16.340;2023-09-08T02:30:20;12.95;;;6.65;;
16330;SDS011;8275;48.206;16.340;2023-09-08T02:32:50;6.97;;;5.63;;
16330;SDS011;8275;48.206;16.340;2023-09-08T02:35:19;6.68;;;6.05;;
16330;SDS011;8275;48.206;16.340;2023-09-08T02:37:47;8.20;;;6.53;;
16330;SDS011;8275;48.206;16.340;2023-09-08T02:40:16;7.95;;;6.78;;
16330;SDS011;8275;48.206;16.340;2023-09-08T02:42:45;9.90;;;6.30;;
16330;SDS011;8275;48.206;16.340;2023-09-08T02:45:14;7.63;;;6.43;;
16330;SDS011;8275;48.206;16.340;2023-09-08T02:47:43;6.80;;;6.15;;
16330;SDS011;8275;48.206;16.340;2023-09-08T02:50:12;8.10;;;7.05;;
16330;SDS011;8275;48.206;16.340;2023-09-08T02:52:41;7.10;;;6.50;;
16330;SDS011;8275;48.206;16.340;2023-09-08T02:55:10;8.57;;;6.68;;
16330;SDS011;8275;48.206;16.340;2023-09-08T02:57:39;7.50;;;6.57;;
16330;SDS011;8275;48.206;16.340;2023-09-08T03:00:08;9.40;;;6.60;;
16330;SDS011;8275;48.206;16.340;2023-09-08T03:02:37;7.35;;;6.65;;
16330;SDS011;8275;48.206;16.340;2023-09-08T03:05:06;10.48;;;7.55;;
16330;SDS011;8275;48.206;16.340;2023-09-08T03:07:37;8.85;;;7.95;;
16330;SDS011;8275;48.206;16.340;2023-09-08T03:10:06;8.38;;;6.88;;
16330;SDS011;8275;48.206;16.340;2023-09-08T03:12:35;7.47;;;6.53;;
16330;SDS011;8275;48.206;16.340;2023-09-08T03:15:04;8.27;;;7.15;;
16330;SDS011;8275;48.206;16.340;2023-09-08T03:17:34;7.28;;;6.53;;
16330;SDS011;8275;48.206;16.340;2023-09-08T03:20:03;7.18;;;6.47;;
16330;SDS011;8275;48.206;16.340;2023-09-08T03:22:34;8.80;;;7.93;;
16330;SDS011;8275;48.206;16.340;2023-09-08T03:25:05;12.00;;;7.55;;
16330;SDS011;8275;48.206;16.340;2023-09-08T03:27:34;11.15;;;6.80;;
16330;SDS011;8275;48.206;16.340;2023-09-08T03:30:03;9.63;;;7.82;;
16330;SDS011;8275;48.206;16.340;2023-09-08T03:32:33;9.07;;;7.45;;
16330;SDS011;8275;48.206;16.340;2023-09-08T03:35:01;8.95;;;6.72;;
16330;SDS011;8275;48.206;16.340;2023-09-08T03:37:33;7.53;;;6.47;;
16330;SDS011;8275;48.206;16.340;2023-09-08T03:40:04;7.80;;;6.82;;
16330;SDS011;8275;48.206;16.340;2023-09-08T03:42:35;8.90;;;7.38;;
16330;SDS011;8275;48.206;16.340;2023-09-08T03:45:04;9.55;;;7.28;;
16330;SDS011;8275;48.206;16.340;2023-09-08T03:47:34;12.13;;;7.68;;
16330;SDS011;8275;48.206;16.340;2023-09-08T03:50:03;7.60;;;6.82;;
16330;SDS011;8275;48.206;16.340;2023-09-08T03:52:33;8.23;;;6.55;;
16330;SDS011;8275;48.206;16.340;2023-09-08T03:55:04;9.80;;;6.72;;
16330;SDS011;8275;48.206;16.340;2023-09-08T03:57:33;9.93;;;7.32;;
16330;SDS011;8275;48.206;16.340;2023-09-08T04:00:01;9.45;;;6.57;;
16330;SDS011;8275;48.206;16.340;2023-09-08T04:02:33;9.15;;;6.70;;
16330;SDS011;8275;48.206;16.340;2023-09-08T04:05:01;8.95;;;7.22;;
16330;SDS011;8275;48.206;16.340;2023-09-08T04:07:31;8.68;;;7.88;;
16330;SDS011;8275;48.206;16.340;2023-09-08T04:10:00;7.55;;;6.80;;
16330;SDS011;8275;48.206;16.340;2023-09-08T04:12:31;8.73;;;7.38;;
16330;SDS011;8275;48.206;16.340;2023-09-08T04:14:59;7.75;;;7.05;;
16330;SDS011;8275;48.206;16.340;2023-09-08T04:17:28;8.98;;;7.78;;
16330;SDS011;8275;48.206;16.340;2023-09-08T04:19:56;12.80;;;6.95;;
16330;SDS011;8275;48.206;16.340;2023-09-08T04:22:25;11.13;;;7.38;;
16330;SDS011;8275;48.206;16.340;2023-09-08T04:24:53;8.30;;;6.55;;
16330;SDS011;8275;48.206;16.340;2023-09-08T04:27:23;11.75;;;7.38;;
16330;SDS011;8275;48.206;16.340;2023-09-08T04:29:53;7.47;;;6.75;;
16330;SDS011;8275;48.206;16.340;2023-09-08T04:32:22;7.43;;;6.70;;
16330;SDS011;8275;48.206;16.340;2023-09-08T04:34:50;8.82;;;7.00;;
16330;SDS011;8275;48.206;16.340;2023-09-08T04:37:19;8.98;;;6.35;;
16330;SDS011;8275;48.206;16.340;2023-09-08T04:39:48;6.93;;;6.20;;
16330;SDS011;8275;48.206;16.340;2023-09-08T04:42:16;9.43;;;8.30;;
16330;SDS011;8275;48.206;16.340;2023-09-08T04:44:45;8.40;;;7.32;;
16330;SDS011;8275;48.206;16.340;2023-09-08T04:47:15;10.63;;;6.72;;
16330;SDS011;8275;48.206;16.340;2023-09-08T04:49:44;7.75;;;6.97;;
16330;SDS011;8275;48.206;16.340;2023-09-08T04:52:12;8.05;;;7.32;;
16330;SDS011;8275;48.206;16.340;2023-09-08T04:54:41;7.88;;;7.07;;
16330;SDS011;8275;48.206;16.340;2023-09-08T04:57:09;8.32;;;7.43;;
16330;SDS011;8275;48.206;16.340;2023-09-08T04:59:48;9.40;;;7.35;;
16330;SDS011;8275;48.206;16.340;2023-09-08T05:02:19;8.27;;;7.47;;
16330;SDS011;8275;48.206;16.340;2023-09-08T05:04:47;7.95;;;7.10;;
16330;SDS011;8275;48.206;16.340;2023-09-08T05:07:16;9.63;;;8.07;;
16330;SDS011;8275;48.206;16.340;2023-09-08T05:09:45;11.23;;;7.38;;
16330;SDS011;8275;48.206;16.340;2023-09-08T05:12:13;9.27;;;8.25;;
16330;SDS011;8275;48.206;16.340;2023-09-08T05:14:42;10.35;;;7.07;;
16330;SDS011;8275;48.206;16.340;2023-09-08T05:17:11;10.10;;;7.88;;
16330;SDS011;8275;48.206;16.340;2023-09-08T05:19:41;8.27;;;7.03;;
16330;SDS011;8275;48.206;16.340;2023-09-08T05:22:09;9.00;;;7.25;;
16330;SDS011;8275;48.206;16.340;2023-09-08T05:24:37;9.85;;;7.53;;
16330;SDS011;8275;48.206;16.340;2023-09-08T05:27:06;9.38;;;7.32;;
16330;SDS011;8275;48.206;16.340;2023-09-08T05:29:34;8.23;;;7.20;;
16330;SDS011;8275;48.206;16.340;2023-09-08T05:32:03;9.93;;;8.27;;
16330;SDS011;8275;48.206;16.340;2023-09-08T05:34:32;9.90;;;7.30;;
16330;SDS011;8275;48.206;16.340;2023-09-08T05:37:02;8.02;;;7.25;;
16330;SDS011;8275;48.206;16.340;2023-09-08T05:39:31;7.75;;;6.93;;
16330;SDS011;8275;48.206;16.340;2023-09-08T05:41:59;7.93;;;7.13;;
16330;SDS011;8275;48.206;16.340;2023-09-08T05:44:28;7.93;;;7.13;;
16330;SDS011;8275;48.206;16.340;2023-09-08T05:46:56;9.45;;;6.82;;
16330;SDS011;8275;48.206;16.340;2023-09-08T05:49:25;15.77;;;7.88;;
16330;SDS011;8275;48.206;16.340;2023-09-08T05:51:54;9.27;;;7.20;;
16330;SDS011;8275;48.206;16.340;2023-09-08T05:54:24;10.20;;;8.30;;
16330;SDS011;8275;48.206;16.340;2023-09-08T05:56:52;9.98;;;6.97;;
16330;SDS011;8275;48.206;16.340;2023-09-08T05:59:21;10.57;;;6.65;;
16330;SDS011;8275;48.206;16.340;2023-09-08T06:01:49;8.75;;;7.43;;
16330;SDS011;8275;48.206;16.340;2023-09-08T06:04:18;8.80;;;7.78;;
16330;SDS011;8275;48.206;16.340;2023-09-08T06:06:46;10.20;;;8.55;;
16330;SDS011;8275;48.206;16.340;2023-09-08T06:09:15;7.95;;;7.18;;
16330;SDS011;8275;48.206;16.340;2023-09-08T06:11:45;16.00;;;7.75;;
16330;SDS011;8275;48.206;16.340;2023-09-08T06:14:14;9.57;;;7.18;;
16330;SDS011;8275;48.206;16.340;2023-09-08T06:16:42;14.25;;;8.65;;
16330;SDS011;8275;48.206;16.340;2023-09-08T06:19:11;15.25;;;8.40;;
16330;SDS011;8275;48.206;16.340;2023-09-08T06:21:40;7.35;;;6.63;;
16330;SDS011;8275;48.206;16.340;2023-09-08T06:24:08;10.35;;;6.63;;
16330;SDS011;8275;48.206;16.340;2023-09-08T06:26:37;11.90;;;8.07;;
16330;SDS011;8275;48.206;16.340;2023-09-08T06:29:07;8.95;;;8.05;;
16330;SDS011;8275;48.206;16.340;2023-09-08T06:31:36;8.70;;;7.20;;
16330;SDS011;8275;48.206;16.340;2023-09-08T06:34:04;9.07;;;8.10;;
16330;SDS011;8275;48.206;16.340;2023-09-08T06:36:33;8.65;;;7.20;;
16330;SDS011;8275;48.206;16.340;2023-09-08T06:39:02;8.95;;;7.07;;
16330;SDS011;8275;48.206;16.340;2023-09-08T06:41:31;9.20;;;7.03;;
16330;SDS011;8275;48.206;16.340;2023-09-08T06:44:00;9.32;;;8.43;;
16330;SDS011;8275;48.206;16.340;2023-09-08T06:46:30;11.70;;;7.68;;
16330;SDS011;8275;48.206;16.340;2023-09-08T06:48:58;11.93;;;7.32;;
16330;SDS011;8275;48.206;16.340;2023-09-08T06:51:30;13.57;;;7.45;;
16330;SDS011;8275;48.206;16.340;2023-09-08T06:53:59;9.52;;;8.50;;
16330;SDS011;8275;48.206;16.340;2023-09-08T06:56:27;9.30;;;7.57;;
16330;SDS011;8275;48.206;16.340;2023-09-08T06:58:56;9.18;;;8.15;;
16330;SDS011;8275;48.206;16.340;2023-09-08T07:01:25;9.70;;;8.27;;
16330;SDS011;8275;48.206;16.340;2023-09-08T07:03:55;9.38;;;7.75;;
16330;SDS011;8275;48.206;16.340;2023-09-08T07:06:24;9.88;;;7.53;;
16330;SDS011;8275;48.206;16.340;2023-09-08T07:08:53;15.32;;;9.35;;
16330;SDS011;8275;48.206;16.340;2023-09-08T07:11:21;11.98;;;8.43;;
16330;SDS011;8275;48.206;16.340;2023-09-08T07:13:50;12.82;;;7.80;;
16330;SDS011;8275;48.206;16.340;2023-09-08T07:16:18;8.77;;;7.97;;
16330;SDS011;8275;48.206;16.340;2023-09-08T07:18:47;7.70;;;6.40;;
16330;SDS011;8275;48.206;16.340;2023-09-08T07:21:17;11.65;;;8.57;;
16330;SDS011;8275;48.206;16.340;2023-09-08T07:23:46;8.32;;;7.53;;
16330;SDS011;8275;48.206;16.340;2023-09-08T07:26:14;7.10;;;6.47;;
16330;SDS011;8275;48.206;16.340;2023-09-08T07:28:43;13.30;;;7.85;;
16330;SDS011;8275;48.206;16.340;2023-09-08T07:31:11;12.00;;;8.55;;
16330;SDS011;8275;48.206;16.340;2023-09-08T07:33:40;11.68;;;8.75;;
16330;SDS011;8275;48.206;16.340;2023-09-08T07:36:09;10.77;;;9.70;;
16330;SDS011;8275;48.206;16.340;2023-09-08T07:38:39;9.57;;;8.55;;
16330;SDS011;8275;48.206;16.340;2023-09-08T07:41:08;14.50;;;8.23;;
16330;SDS011;8275;48.206;16.340;2023-09-08T07:43:37;13.40;;;10.00;;
16330;SDS011;8275;48.206;16.340;2023-09-08T07:46:07;10.93;;;8.93;;
16330;SDS011;8275;48.206;16.340;2023-09-08T07:48:36;9.07;;;8.27;;
16330;SDS011;8275;48.206;16.340;2023-09-08T07:51:05;11.70;;;8.20;;
16330;SDS011;8275;48.206;16.340;2023-09-08T07:53:33;9.13;;;8.25;;
16330;SDS011;8275;48.206;16.340;2023-09-08T07:56:04;8.25;;;7.13;;
16330;SDS011;8275;48.206;16.340;2023-09-08T07:58:32;16.52;;;8.70;;
16330;SDS011;8275;48.206;16.340;2023-09-08T08:01:01;10.95;;;8.50;;
16330;SDS011;8275;48.206;16.340;2023-09-08T08:03:30;9.98;;;8.98;;
16330;SDS011;8275;48.206;16.340;2023-09-08T08:05:58;12.98;;;9.15;;
16330;SDS011;8275;48.206;16.340;2023-09-08T08:08:27;10.77;;;9.55;;
16330;SDS011;8275;48.206;16.340;2023-09-08T08:10:57;10.65;;;8.18;;
16330;SDS011;8275;48.206;16.340;2023-09-08T08:13:28;12.90;;;8.32;;
16330;SDS011;8275;48.206;16.340;2023-09-08T08:15:56;12.60;;;8.95;;
16330;SDS011;8275;48.206;16.340;2023-09-08T08:18:25;11.25;;;9.23;;
16330;SDS011;8275;48.206;16.340;2023-09-08T08:20:54;11.90;;;9.32;;
16330;SDS011;8275;48.206;16.340;2023-09-08T08:23:22;9.35;;;8.45;;
16330;SDS011;8275;48.206;16.340;2023-09-08T08:25:51;11.77;;;8.70;;
16330;SDS011;8275;48.206;16.340;2023-09-08T08:28:19;9.32;;;8.32;;
16330;SDS011;8275;48.206;16.340;2023-09-08T08:30:49;8.57;;;7.75;;
16330;SDS011;8275;48.206;16.340;2023-09-08T08:33:19;8.65;;;7.95;;
16330;SDS011;8275;48.206;16.340;2023-09-08T08:35:48;8.30;;;6.55;;
16330;SDS011;8275;48.206;16.340;2023-09-08T08:38:17;7.07;;;6.55;;
16330;SDS011;8275;48.206;16.340;2023-09-08T08:40:46;7.78;;;6.20;;
16330;SDS011;8275;48.206;16.340;2023-09-08T08:43:15;11.30;;;6.45;;
16330;SDS011;8275;48.206;16.340;2023-09-08T08:45:43;8.18;;;7.10;;
16330;SDS011;8275;48.206;16.340;2023-09-08T08:48:15;9.82;;;6.65;;
16330;SDS011;8275;48.206;16.340;2023-09-08T08:50:48;6.88;;;5.68;;
16330;SDS011;8275;48.206;16.340;2023-09-08T08:53:18;9.80;;;6.28;;
16330;SDS011;8275;48.206;16.340;2023-09-08T08:55:49;11.38;;;5.93;;
16330;SDS011;8275;48.206;16.340;2023-09-08T08:58:21;5.80;;;5.18;;
16330;SDS011;8275;48.206;16.340;2023-09-08T09:00:53;5.93;;;5.30;;
16330;SDS011;8275;48.206;16.340;2023-09-08T09:03:25;5.63;;;5.07;;
16330;SDS011;8275;48.206;16.340;2023-09-08T09:05:55;5.10;;;4.65;;
16330;SDS011;8275;48.206;16.340;2023-09-08T09:08:25;6.97;;;5.50;;
16330;SDS011;8275;48.206;16.340;2023-09-08T09:10:55;5.63;;;5.13;;
16330;SDS011;8275;48.206;16.340;2023-09-08T09:13:24;5.95;;;5.00;;
16330;SDS011;8275;48.206;16.340;2023-09-08T09:15:53;11.15;;;5.28;;
16330;SDS011;8275;48.206;16.340;2023-09-08T09:18:30;6.53;;;5.38;;
16330;SDS011;8275;48.206;16.340;2023-09-08T09:21:00;5.28;;;4.78;;
16330;SDS011;8275;48.206;16.340;2023-09-08T09:23:29;5.20;;;4.70;;
16330;SDS011;8275;48.206;16.340;2023-09-08T09:26:01;6.47;;;4.97;;
16330;SDS011;8275;48.206;16.340;2023-09-08T09:28:31;8.15;;;4.82;;
16330;SDS011;8275;48.206;16.340;2023-09-08T09:31:00;6.88;;;4.85;;
16330;SDS011;8275;48.206;16.340;2023-09-08T09:33:30;6.38;;;5.20;;
16330;SDS011;8275;48.206;16.340;2023-09-08T09:35:59;5.03;;;4.63;;
16330;SDS011;8275;48.206;16.340;2023-09-08T09:38:28;6.20;;;4.10;;
16330;SDS011;8275;48.206;16.340;2023-09-08T09:40:57;6.22;;;5.63;;
16330;SDS011;8275;48.206;16.340;2023-09-08T09:43:25;5.22;;;4.63;;
16330;SDS011;8275;48.206;16.340;2023-09-08T09:45:56;6.65;;;4.75;;
16330;SDS011;8275;48.206;16.340;2023-09-08T09:48:25;6.05;;;4.45;;
16330;SDS011;8275;48.206;16.340;2023-09-08T09:50:56;5.10;;;4.60;;
16330;SDS011;8275;48.206;16.340;2023-09-08T09:53:25;4.50;;;4.20;;
16330;SDS011;8275;48.206;16.340;2023-09-08T09:55:53;6.50;;;5.10;;
16330;SDS011;8275;48.206;16.340;2023-09-08T09:58:23;5.43;;;4.63;;
16330;SDS011;8275;48.206;16.340;2023-09-08T10:00:53;5.22;;;4.75;;
16330;SDS011;8275;48.206;16.340;2023-09-08T10:03:23;5.55;;;5.05;;
16330;SDS011;8275;48.206;16.340;2023-09-08T10:05:52;5.07;;;4.53;;
16330;SDS011;8275;48.206;16.340;2023-09-08T10:08:23;7.10;;;5.03;;
16330;SDS011;8275;48.206;16.340;2023-09-08T10:10:51;6.30;;;4.57;;
16330;SDS011;8275;48.206;16.340;2023-09-08T10:13:23;5.75;;;4.60;;
16330;SDS011;8275;48.206;16.340;2023-09-08T10:15:56;9.15;;;5.60;;
16330;SDS011;8275;48.206;16.340;2023-09-08T10:18:26;5.43;;;4.90;;
16330;SDS011;8275;48.206;16.340;2023-09-08T10:20:57;4.75;;;3.83;;
16330;SDS011;8275;48.206;16.340;2023-09-08T10:23:36;5.28;;;4.88;;
16330;SDS011;8275;48.206;16.340;2023-09-08T10:26:09;6.38;;;4.38;;
16330;SDS011;8275;48.206;16.340;2023-09-08T10:28:39;7.47;;;4.57;;
16330;SDS011;8275;48.206;16.340;2023-09-08T10:31:07;5.20;;;4.70;;
16330;SDS011;8275;48.206;16.340;2023-09-08T10:33:40;6.03;;;4.80;;
16330;SDS011;8275;48.206;16.340;2023-09-08T10:36:11;4.80;;;4.40;;
16330;SDS011;8275;48.206;16.340;2023-09-08T10:38:41;5.43;;;4.93;;
16330;SDS011;8275;48.206;16.340;2023-09-08T10:41:26;5.95;;;4.43;;
16330;SDS011;8275;48.206;16.340;2023-09-08T10:44:01;5.82;;;4.65;;
16330;SDS011;8275;48.206;16.340;2023-09-08T10:46:35;5.90;;;5.40;;
16330;SDS011;8275;48.206;16.340;2023-09-08T10:49:05;6.00;;;4.45;;
16330;SDS011;8275;48.206;16.340;2023-09-08T10:51:36;5.00;;;4.57;;
16330;SDS011;8275;48.206;16.340;2023-09-08T10:54:07;5.97;;;4.53;;
16330;SDS011;8275;48.206;16.340;2023-09-08T10:56:47;5.32;;;4.40;;
16330;SDS011;8275;48.206;16.340;2023-09-08T10:59:21;7.38;;;4.57;;
16330;SDS011;8275;48.206;16.340;2023-09-08T11:01:55;7.97;;;6.07;;
16330;SDS011;8275;48.206;16.340;2023-09-08T11:04:23;8.48;;;5.35;;
16330;SDS011;8275;48.206;16.340;2023-09-08T11:06:55;9.07;;;5.05;;
16330;SDS011;8275;48.206;16.340;2023-09-08T11:09:26;5.40;;;4.90;;
16330;SDS011;8275;48.206;16.340;2023-09-08T11:11:55;4.82;;;4.40;;
16330;SDS011;8275;48.206;16.340;2023-09-08T11:14:25;5.53;;;4.50;;
16330;SDS011;8275;48.206;16.340;2023-09-08T11:16:54;6.50;;;5.15;;
16330;SDS011;8275;48.206;16.340;2023-09-08T11:19:38;7.97;;;5.47;;
16330;SDS011;8275;48.206;16.340;2023-09-08T11:22:12;6.25;;;4.50;;
16330;SDS011;8275;48.206;16.340;2023-09-08T11:24:42;12.65;;;5.07;;
16330;SDS011;8275;48.206;16.340;2023-09-08T11:27:11;5.30;;;4.88;;
16330;SDS011;8275;48.206;16.340;2023-09-08T11:29:40;5.88;;;5.38;;
16330;SDS011;8275;48.206;16.340;2023-09-08T11:32:09;5.30;;;4.90;;
16330;SDS011;8275;48.206;16.340;2023-09-08T11:34:38;6.18;;;5.68;;
16330;SDS011;8275;48.206;16.340;2023-09-08T11:37:08;7.22;;;5.25;;
16330;SDS011;8275;48.206;16.340;2023-09-08T11:39:39;5.80;;;4.80;;
16330;SDS011;8275;48.206;16.340;2023-09-08T11:42:11;5.82;;;5.38;;
16330;SDS011;8275;48.206;16.340;2023-09-08T11:44:41;5.30;;;4.80;;
16330;SDS011;8275;48.206;16.340;2023-09-08T11:47:10;5.63;;;5.13;;
16330;SDS011;8275;48.206;16.340;2023-09-08T11:49:40;5.82;;;5.32;;
16330;SDS011;8275;48.206;16.340;2023-09-08T11:52:11;10.15;;;5.38;;
16330;SDS011;8275;48.206;16.340;2023-09-08T11:54:40;8.05;;;4.82;;
16330;SDS011;8275;48.206;16.340;2023-09-08T11:57:30;6.43;;;4.40;;
16330;SDS011;8275;48.206;16.340;2023-09-08T11:59:59;6.47;;;5.22;;
16330;SDS011;8275;48.206;16.340;2023-09-08T12:02:34;5.53;;;4.82;;
16330;SDS011;8275;48.206;16.340;2023-09-08T12:05:03;5.45;;;4.90;;
16330;SDS011;8275;48.206;16.340;2023-09-08T12:07:39;8.10;;;5.45;;
16330;SDS011;8275;48.206;16.340;2023-09-08T12:10:08;5.18;;;4.68;;
16330;SDS011;8275;48.206;16.340;2023-09-08T12:12:44;5.47;;;5.07;;
16330;SDS011;8275;48.206;16.340;2023-09-08T12:15:29;5.40;;;4.88;;
16330;SDS011;8275;48.206;16.340;2023-09-08T12:17:59;5.88;;;4.90;;
16330;SDS011;8275;48.206;16.340;2023-09-08T12:20:29;5.07;;;4.57;;
16330;SDS011;8275;48.206;16.340;2023-09-08T12:22:59;5.00;;;4.60;;
16330;SDS011;8275;48.206;16.340;2023-09-08T12:25:29;5.28;;;4.57;;
16330;SDS011;8275;48.206;16.340;2023-09-08T12:28:00;9.02;;;5.85;;
16330;SDS011;8275;48.206;16.340;2023-09-08T12:30:29;5.53;;;5.03;;
16330;SDS011;8275;48.206;16.340;2023-09-08T12:33:00;10.15;;;4.57;;
16330;SDS011;8275;48.206;16.340;2023-09-08T12:35:30;5.43;;;4.97;;
16330;SDS011;8275;48.206;16.340;2023-09-08T12:37:59;4.60;;;4.20;;
16330;SDS011;8275;48.206;16.340;2023-09-08T12:40:32;5.80;;;5.35;;
16330;SDS011;8275;48.206;16.340;2023-09-08T12:43:04;5.35;;;4.85;;
16330;SDS011;8275;48.206;16.340;2023-09-08T12:45:53;5.50;;;5.00;;
16330;SDS011;8275;48.206;16.340;2023-09-08T12:48:23;4.88;;;4.13;;
16330;SDS011;8275;48.206;16.340;2023-09-08T12:50:52;5.32;;;4.93;;
16330;SDS011;8275;48.206;16.340;2023-09-08T12:53:20;4.93;;;4.63;;
16330;SDS011;8275;48.206;16.340;2023-09-08T12:55:49;4.88;;;4.05;;
16330;SDS011;8275;48.206;16.340;2023-09-08T12:58:19;4.38;;;3.97;;
16330;SDS011;8275;48.206;16.340;2023-09-08T13:00:48;5.03;;;4.63;;
16330;SDS011;8275;48.206;16.340;2023-09-08T13:03:17;4.68;;;4.38;;
16330;SDS011;8275;48.206;16.340;2023-09-08T13:05:46;4.28;;;3.97;;
16330;SDS011;8275;48.206;16.340;2023-09-08T13:08:15;5.68;;;5.28;;
16330;SDS011;8275;48.206;16.340;2023-09-08T13:10:44;7.93;;;4.53;;
16330;SDS011;8275;48.206;16.340;2023-09-08T13:13:13;5.25;;;4.75;;
16330;SDS011;8275;48.206;16.340;2023-09-08T13:15:44;5.47;;;5.07;;
16330;SDS011;8275;48.206;16.340;2023-09-08T13:18:13;5.35;;;4.95;;
16330;SDS011;8275;48.206;16.340;2023-09-08T13:20:42;4.72;;;4.32;;
16330;SDS011;8275;48.206;16.340;2023-09-08T13:23:11;5.00;;;4.50;;
16330;SDS011;8275;48.206;16.340;2023-09-08T13:25:40;5.10;;;4.78;;
16330;SDS011;8275;48.206;16.340;2023-09-08T13:28:11;5.53;;;5.13;;
16330;SDS011;8275;48.206;16.340;2023-09-08T13:30:40;4.60;;;4.20;;
16330;SDS011;8275;48.206;16.340;2023-09-08T13:33:11;6.13;;;4.65;;
16330;SDS011;8275;48.206;16.340;2023-09-08T13:35:41;5.35;;;4.40;;
16330;SDS011;8275;48.206;16.340;2023-09-08T13:38:11;4.97;;;4.57;;
16330;SDS011;8275;48.206;16.340;2023-09-08T13:40:41;4.45;;;4.05;;
16330;SDS011;8275;48.206;16.340;2023-09-08T13:43:10;5.25;;;4.75;;
16330;SDS011;8275;48.206;16.340;2023-09-08T13:45:40;5.32;;;4.93;;
16330;SDS011;8275;48.206;16.340;2023-09-08T13:48:12;7.10;;;4.88;;
16330;SDS011;8275;48.206;16.340;2023-09-08T13:50:42;7.68;;;5.53;;
16330;SDS011;8275;48.206;16.340;2023-09-08T13:53:13;6.35;;;5.72;;
16330;SDS011;8275;48.206;16.340;2023-09-08T13:55:45;5.47;;;4.05;;
16330;SDS011;8275;48.206;16.340;2023-09-08T13:58:17;5.32;;;4.78;;
16330;SDS011;8275;48.206;16.340;2023-09-08T14:00:47;5.38;;;4.63;;
16330;SDS011;8275;48.206;16.340;2023-09-08T14:03:21;5.20;;;4.60;;
16330;SDS011;8275;48.206;16.340;2023-09-08T14:05:51;4.68;;;4.28;;
16330;SDS011;8275;48.206;16.340;2023-09-08T14:08:23;6.25;;;3.97;;
16330;SDS011;8275;48.206;16.340;2023-09-08T14:10:55;6.40;;;4.55;;
16330;SDS011;8275;48.206;16.340;2023-09-08T14:13:28;4.85;;;4.55;;
16330;SDS011;8275;48.206;16.340;2023-09-08T14:15:58;6.10;;;4.57;;
16330;SDS011;8275;48.206;16.340;2023-09-08T14:18:29;4.70;;;4.30;;
16330;SDS011;8275;48.206;16.340;2023-09-08T14:20:59;5.18;;;4.75;;
16330;SDS011;8275;48.206;16.340;2023-09-08T14:23:29;5.93;;;5.15;;
16330;SDS011;8275;48.206;16.340;2023-09-08T14:26:01;4.68;;;3.92;;
16330;SDS011;8275;48.206;16.340;2023-09-08T14:28:31;4.63;;;4.32;;
16330;SDS011;8275;48.206;16.340;2023-09-08T14:31:01;5.60;;;4.57;;
16330;SDS011;8275;48.206;16.340;2023-09-08T14:33:33;6.85;;;6.15;;
16330;SDS011;8275;48.206;16.340;2023-09-08T14:36:04;7.18;;;5.07;;
16330;SDS011;8275;48.206;16.340;2023-09-08T14:38:34;5.18;;;4.72;;
16330;SDS011;8275;48.206;16.340;2023-09-08T14:41:03;6.30;;;5.75;;
16330;SDS011;8275;48.206;16.340;2023-09-08T14:43:33;6.50;;;4.55;;
16330;SDS011;8275;48.206;16.340;2023-09-08T14:46:03;5.68;;;4.88;;
16330;SDS011;8275;48.206;16.340;2023-09-08T14:48:35;7.30;;;4.97;;
16330;SDS011;8275;48.206;16.340;2023-09-08T14:51:04;4.72;;;4.32;;
16330;SDS011;8275;48.206;16.340;2023-09-08T14:53:34;4.90;;;4.50;;
16330;SDS011;8275;48.206;16.340;2023-09-08T14:56:04;5.40;;;4.82;;
16330;SDS011;8275;48.206;16.340;2023-09-08T14:58:34;4.82;;;4.38;;
16330;SDS011;8275;48.206;16.340;2023-09-08T15:01:03;5.15;;;4.63;;
16330;SDS011;8275;48.206;16.340;2023-09-08T15:03:36;4.80;;;4.28;;